sensor_id;sensor_type;location;lat;lon;timestamp;P1;durP1;ratioP1;P2;durP2;ratioP2
26020;SDS011;13798;48.858;9.092;2022-07-21T04:40:55;16.35;;;14.60;;
26020;SDS011;13798;48.858;9.092;2022-07-21T04:43:21;16.70;;;15.20;;
26020;SDS011;13798;48.858;9.092;2022-07-21T04:45:46;16.33;;;14.57;;
26020;SDS011;13798;48.858;9.092;2022-07-21T04:48:12;17.15;;;15.45;;
26020;SDS011;13798;48.858;9.092;2022-07-21T04:50:37;15.73;;;14.23;;
26020;SDS011;13798;48.858;9.092;2022-07-21T04:53:03;16.37;;;14.83;;
26020;SDS011;13798;48.858;9.092;2022-07-21T04:55:29;16.50;;;14.90;;
26020;SDS011;13798;48.858;9.092;2022-07-21T04:57:54;16.92;;;15.00;;
26020;SDS011;13798;48.858;9.092;2022-07-21T05:00:23;16.87;;;15.27;;
26020;SDS011;13798;48.858;9.092;2022-07-21T05:02:51;16.10;;;14.60;;
26020;SDS011;13798;48.858;9.092;2022-07-21T05:05:18;16.95;;;15.32;;
26020;SDS011;13798;48.858;9.092;2022-07-21T05:07:43;16.85;;;15.27;;
26020;SDS011;13798;48.858;9.092;2022-07-21T05:10:10;16.67;;;15.18;;
26020;SDS011;13798;48.858;9.092;2022-07-21T05:12:38;15.60;;;14.00;;
26020;SDS011;13798;48.858;9.092;2022-07-21T05:15:08;16.35;;;14.82;;
26020;SDS011;13798;48.858;9.092;2022-07-21T05:17:36;16.00;;;14.43;;
26020;SDS011;13798;48.858;9.092;2022-07-21T05:20:02;16.43;;;14.83;;
26020;SDS011;13798;48.858;9.092;2022-07-21T05:22:28;16.90;;;15.20;;
26020;SDS011;13798;48.858;9.092;2022-07-21T05:24:54;16.85;;;15.05;;
26020;SDS011;13798;48.858;9.092;2022-07-21T05:27:20;16.57;;;14.90;;
26020;SDS011;13798;48.858;9.092;2022-07-21T05:29:45;16.27;;;14.47;;
26020;SDS011;13798;48.858;9.092;2022-07-21T05:32:12;17.10;;;15.40;;
26020;SDS011;13798;48.858;9.092;2022-07-21T05:34:41;16.98;;;14.95;;
26020;SDS011;13798;48.858;9.092;2022-07-21T05:37:07;16.55;;;14.98;;
26020;SDS011;13798;48.858;9.092;2022-07-21T05:39:33;16.77;;;15.10;;
26020;SDS011;13798;48.858;9.092;2022-07-21T05:41:58;16.90;;;15.10;;
26020;SDS011;13798;48.858;9.092;2022-07-21T05:44:24;17.47;;;15.97;;
26020;SDS011;13798;48.858;9.092;2022-07-21T05:46:49;17.52;;;15.82;;
26020;SDS011;13798;48.858;9.092;2022-07-21T05:49:15;21.07;;;16.50;;
26020;SDS011;13798;48.858;9.092;2022-07-21T05:51:40;17.77;;;15.82;;
26020;SDS011;13798;48.858;9.092;2022-07-21T05:54:06;18.33;;;16.63;;
26020;SDS011;13798;48.858;9.092;2022-07-21T05:56:31;19.47;;;17.57;;
26020;SDS011;13798;48.858;9.092;2022-07-21T05:58:57;18.75;;;16.95;;
26020;SDS011;13798;48.858;9.092;2022-07-21T06:01:22;18.07;;;16.20;;
26020;SDS011;13798;48.858;9.092;2022-07-21T06:03:48;18.63;;;16.73;;
26020;SDS011;13798;48.858;9.092;2022-07-21T06:06:15;18.13;;;16.33;;
26020;SDS011;13798;48.858;9.092;2022-07-21T06:08:43;17.75;;;16.05;;
26020;SDS011;13798;48.858;9.092;2022-07-21T06:11:11;16.00;;;14.30;;
26020;SDS011;13798;48.858;9.092;2022-07-21T06:13:38;15.60;;;14.00;;
26020;SDS011;13798;48.858;9.092;2022-07-21T06:16:05;15.98;;;14.38;;
26020;SDS011;13798;48.858;9.092;2022-07-21T06:18:31;15.13;;;13.63;;
26020;SDS011;13798;48.858;9.092;2022-07-21T06:20:57;15.30;;;13.80;;
26020;SDS011;13798;48.858;9.092;2022-07-21T06:23:23;16.10;;;14.48;;
26020;SDS011;13798;48.858;9.092;2022-07-21T06:25:49;16.20;;;14.27;;
26020;SDS011;13798;48.858;9.092;2022-07-21T06:28:16;15.55;;;13.93;;
26020;SDS011;13798;48.858;9.092;2022-07-21T06:30:42;14.98;;;13.50;;
26020;SDS011;13798;48.858;9.092;2022-07-21T06:33:07;14.97;;;13.53;;
26020;SDS011;13798;48.858;9.092;2022-07-21T06:35:33;14.45;;;12.95;;
26020;SDS011;13798;48.858;9.092;2022-07-21T06:37:59;14.18;;;12.75;;
26020;SDS011;13798;48.858;9.092;2022-07-21T06:40:24;13.80;;;12.57;;
26020;SDS011;13798;48.858;9.092;2022-07-21T06:42:50;13.63;;;12.30;;
26020;SDS011;13798;48.858;9.092;2022-07-21T06:45:16;13.50;;;12.30;;
26020;SDS011;13798;48.858;9.092;2022-07-21T06:47:42;13.90;;;12.60;;
26020;SDS011;13798;48.858;9.092;2022-07-21T06:50:08;14.73;;;13.23;;
26020;SDS011;13798;48.858;9.092;2022-07-21T06:52:34;14.93;;;13.52;;
26020;SDS011;13798;48.858;9.092;2022-07-21T06:55:01;14.27;;;12.82;;
26020;SDS011;13798;48.858;9.092;2022-07-21T06:57:27;14.82;;;13.38;;
26020;SDS011;13798;48.858;9.092;2022-07-21T06:59:53;19.67;;;17.50;;
26020;SDS011;13798;48.858;9.092;2022-07-21T07:02:18;14.63;;;13.23;;
26020;SDS011;13798;48.858;9.092;2022-07-21T07:04:44;14.07;;;12.77;;
26020;SDS011;13798;48.858;9.092;2022-07-21T07:07:10;14.43;;;13.03;;
26020;SDS011;13798;48.858;9.092;2022-07-21T07:09:35;11.63;;;10.60;;
26020;SDS011;13798;48.858;9.092;2022-07-21T07:12:01;11.57;;;10.47;;
26020;SDS011;13798;48.858;9.092;2022-07-21T07:14:33;12.38;;;10.90;;
26020;SDS011;13798;48.858;9.092;2022-07-21T07:17:00;11.85;;;9.68;;
26020;SDS011;13798;48.858;9.092;2022-07-21T07:19:27;9.70;;;8.80;;
26020;SDS011;13798;48.858;9.092;2022-07-21T07:21:54;9.55;;;8.65;;
26020;SDS011;13798;48.858;9.092;2022-07-21T07:24:20;9.98;;;8.48;;
26020;SDS011;13798;48.858;9.092;2022-07-21T07:26:46;10.02;;;8.55;;
26020;SDS011;13798;48.858;9.092;2022-07-21T07:29:11;10.53;;;8.23;;
26020;SDS011;13798;48.858;9.092;2022-07-21T07:31:37;9.05;;;8.15;;
26020;SDS011;13798;48.858;9.092;2022-07-21T07:34:03;9.30;;;8.27;;
26020;SDS011;13798;48.858;9.092;2022-07-21T07:36:29;10.68;;;8.63;;
26020;SDS011;13798;48.858;9.092;2022-07-21T07:38:55;9.40;;;8.43;;
26020;SDS011;13798;48.858;9.092;2022-07-21T07:41:22;10.50;;;8.20;;
26020;SDS011;13798;48.858;9.092;2022-07-21T07:43:49;9.70;;;8.23;;
26020;SDS011;13798;48.858;9.092;2022-07-21T07:46:16;9.10;;;8.18;;
26020;SDS011;13798;48.858;9.092;2022-07-21T07:48:42;10.77;;;8.85;;
26020;SDS011;13798;48.858;9.092;2022-07-21T07:51:08;9.60;;;8.40;;
26020;SDS011;13798;48.858;9.092;2022-07-21T07:53:34;9.63;;;8.63;;
26020;SDS011;13798;48.858;9.092;2022-07-21T07:56:00;9.77;;;8.77;;
26020;SDS011;13798;48.858;9.092;2022-07-21T07:58:26;10.88;;;9.38;;
26020;SDS011;13798;48.858;9.092;2022-07-21T08:00:52;9.07;;;8.18;;
26020;SDS011;13798;48.858;9.092;2022-07-21T08:03:18;9.95;;;8.40;;
26020;SDS011;13798;48.858;9.092;2022-07-21T08:05:44;10.77;;;8.93;;
26020;SDS011;13798;48.858;9.092;2022-07-21T08:08:10;8.10;;;7.30;;
26020;SDS011;13798;48.858;9.092;2022-07-21T08:10:35;10.77;;;8.02;;
26020;SDS011;13798;48.858;9.092;2022-07-21T08:13:01;13.48;;;8.52;;
26020;SDS011;13798;48.858;9.092;2022-07-21T08:15:27;12.60;;;9.73;;
26020;SDS011;13798;48.858;9.092;2022-07-21T08:17:52;15.38;;;10.80;;
26020;SDS011;13798;48.858;9.092;2022-07-21T08:20:18;8.90;;;8.00;;
26020;SDS011;13798;48.858;9.092;2022-07-21T08:22:44;10.17;;;8.50;;
26020;SDS011;13798;48.858;9.092;2022-07-21T08:25:09;9.10;;;8.20;;
26020;SDS011;13798;48.858;9.092;2022-07-21T08:27:35;9.63;;;8.55;;
26020;SDS011;13798;48.858;9.092;2022-07-21T08:30:00;9.13;;;7.90;;
26020;SDS011;13798;48.858;9.092;2022-07-21T08:32:26;9.27;;;8.10;;
26020;SDS011;13798;48.858;9.092;2022-07-21T08:34:51;9.75;;;7.40;;
26020;SDS011;13798;48.858;9.092;2022-07-21T08:37:20;9.43;;;7.87;;
26020;SDS011;13798;48.858;9.092;2022-07-21T08:39:46;8.02;;;7.15;;
26020;SDS011;13798;48.858;9.092;2022-07-21T08:42:13;8.68;;;7.57;;
26020;SDS011;13798;48.858;9.092;2022-07-21T08:44:38;7.95;;;7.13;;
26020;SDS011;13798;48.858;9.092;2022-07-21T08:47:04;7.90;;;7.10;;
26020;SDS011;13798;48.858;9.092;2022-07-21T08:49:31;7.97;;;7.18;;
26020;SDS011;13798;48.858;9.092;2022-07-21T08:52:00;8.38;;;7.30;;
26020;SDS011;13798;48.858;9.092;2022-07-21T08:54:26;8.20;;;6.77;;
26020;SDS011;13798;48.858;9.092;2022-07-21T08:56:51;7.43;;;6.32;;
26020;SDS011;13798;48.858;9.092;2022-07-21T08:59:17;9.43;;;6.60;;
26020;SDS011;13798;48.858;9.092;2022-07-21T09:01:43;7.13;;;6.43;;
26020;SDS011;13798;48.858;9.092;2022-07-21T09:04:18;6.90;;;5.67;;
26020;SDS011;13798;48.858;9.092;2022-07-21T09:06:52;6.33;;;5.60;;
26020;SDS011;13798;48.858;9.092;2022-07-21T09:09:23;7.03;;;5.85;;
26020;SDS011;13798;48.858;9.092;2022-07-21T09:11:49;7.18;;;6.20;;
26020;SDS011;13798;48.858;9.092;2022-07-21T09:14:16;8.57;;;6.53;;
26020;SDS011;13798;48.858;9.092;2022-07-21T09:16:45;6.53;;;5.90;;
26020;SDS011;13798;48.858;9.092;2022-07-21T09:19:45;8.05;;;7.18;;
26020;SDS011;13798;48.858;9.092;2022-07-21T09:22:06;7.10;;;6.32;;
26020;SDS011;13798;48.858;9.092;2022-07-21T09:24:37;9.07;;;7.45;;
26020;SDS011;13798;48.858;9.092;2022-07-21T09:27:11;7.03;;;6.32;;
26020;SDS011;13798;48.858;9.092;2022-07-21T09:29:46;7.88;;;7.07;;
26020;SDS011;13798;48.858;9.092;2022-07-21T09:32:25;7.68;;;6.28;;
26020;SDS011;13798;48.858;9.092;2022-07-21T09:35:03;7.28;;;6.40;;
26020;SDS011;13798;48.858;9.092;2022-07-21T09:37:31;7.40;;;6.65;;
26020;SDS011;13798;48.858;9.092;2022-07-21T09:39:59;8.70;;;6.90;;
26020;SDS011;13798;48.858;9.092;2022-07-21T09:42:31;7.45;;;6.13;;
26020;SDS011;13798;48.858;9.092;2022-07-21T09:45:04;7.50;;;6.10;;
26020;SDS011;13798;48.858;9.092;2022-07-21T09:47:32;8.60;;;6.40;;
26020;SDS011;13798;48.858;9.092;2022-07-21T09:49:58;7.00;;;6.32;;
26020;SDS011;13798;48.858;9.092;2022-07-21T09:54:54;6.60;;;6.00;;
26020;SDS011;13798;48.858;9.092;2022-07-21T09:57:25;6.25;;;5.65;;
26020;SDS011;13798;48.858;9.092;2022-07-21T09:59:51;8.13;;;5.93;;
26020;SDS011;13798;48.858;9.092;2022-07-21T10:02:18;6.40;;;5.70;;
26020;SDS011;13798;48.858;9.092;2022-07-21T10:04:46;6.80;;;6.10;;
26020;SDS011;13798;48.858;9.092;2022-07-21T10:07:16;7.05;;;6.03;;
26020;SDS011;13798;48.858;9.092;2022-07-21T10:09:43;6.50;;;5.90;;
26020;SDS011;13798;48.858;9.092;2022-07-21T10:12:09;7.43;;;6.53;;
26020;SDS011;13798;48.858;9.092;2022-07-21T10:14:35;7.80;;;6.00;;
26020;SDS011;13798;48.858;9.092;2022-07-21T10:17:01;6.60;;;6.00;;
26020;SDS011;13798;48.858;9.092;2022-07-21T10:19:28;6.50;;;5.90;;
26020;SDS011;13798;48.858;9.092;2022-07-21T10:22:04;8.30;;;5.65;;
26020;SDS011;13798;48.858;9.092;2022-07-21T10:24:46;6.97;;;5.80;;
26020;SDS011;13798;48.858;9.092;2022-07-21T10:27:12;6.72;;;5.10;;
26020;SDS011;13798;48.858;9.092;2022-07-21T10:32:28;5.82;;;4.97;;
26020;SDS011;13798;48.858;9.092;2022-07-21T10:37:52;6.35;;;4.85;;
26020;SDS011;13798;48.858;9.092;2022-07-21T10:42:43;5.70;;;5.10;;
26020;SDS011;13798;48.858;9.092;2022-07-21T10:45:29;5.03;;;4.60;;
26020;SDS011;13798;48.858;9.092;2022-07-21T10:47:58;5.47;;;5.03;;
26020;SDS011;13798;48.858;9.092;2022-07-21T10:50:31;6.10;;;5.20;;
26020;SDS011;13798;48.858;9.092;2022-07-21T10:53:00;6.75;;;4.60;;
26020;SDS011;13798;48.858;9.092;2022-07-21T10:55:29;5.50;;;5.00;;
26020;SDS011;13798;48.858;9.092;2022-07-21T11:00:49;5.17;;;4.57;;
26020;SDS011;13798;48.858;9.092;2022-07-21T11:22:21;5.20;;;4.70;;
26020;SDS011;13798;48.858;9.092;2022-07-21T11:24:47;6.25;;;4.45;;
26020;SDS011;13798;48.858;9.092;2022-07-21T11:27:15;5.05;;;4.55;;
26020;SDS011;13798;48.858;9.092;2022-07-21T11:29:44;4.93;;;4.53;;
26020;SDS011;13798;48.858;9.092;2022-07-21T11:32:11;5.20;;;4.65;;
26020;SDS011;13798;48.858;9.092;2022-07-21T11:37:06;6.68;;;5.57;;
26020;SDS011;13798;48.858;9.092;2022-07-21T11:39:32;7.50;;;5.45;;
26020;SDS011;13798;48.858;9.092;2022-07-21T11:42:01;6.03;;;5.45;;
26020;SDS011;13798;48.858;9.092;2022-07-21T11:44:31;5.65;;;5.07;;
26020;SDS011;13798;48.858;9.092;2022-07-21T11:46:58;6.77;;;5.97;;
26020;SDS011;13798;48.858;9.092;2022-07-21T11:49:25;6.18;;;5.63;;
26020;SDS011;13798;48.858;9.092;2022-07-21T11:51:52;6.72;;;6.13;;
26020;SDS011;13798;48.858;9.092;2022-07-21T11:54:26;7.47;;;5.68;;
26020;SDS011;13798;48.858;9.092;2022-07-21T11:56:55;6.15;;;5.65;;
26020;SDS011;13798;48.858;9.092;2022-07-21T11:59:22;6.28;;;5.55;;
26020;SDS011;13798;48.858;9.092;2022-07-21T12:04:29;5.80;;;5.25;;
26020;SDS011;13798;48.858;9.092;2022-07-21T12:07:03;7.35;;;5.85;;
26020;SDS011;13798;48.858;9.092;2022-07-21T12:09:33;6.30;;;5.70;;
26020;SDS011;13798;48.858;9.092;2022-07-21T12:11:59;5.93;;;5.43;;
26020;SDS011;13798;48.858;9.092;2022-07-21T12:14:44;6.90;;;6.20;;
26020;SDS011;13798;48.858;9.092;2022-07-21T12:17:16;7.32;;;6.10;;
26020;SDS011;13798;48.858;9.092;2022-07-21T12:19:55;6.88;;;6.00;;
26020;SDS011;13798;48.858;9.092;2022-07-21T12:22:31;6.77;;;6.13;;
26020;SDS011;13798;48.858;9.092;2022-07-21T12:25:01;6.83;;;6.13;;
26020;SDS011;13798;48.858;9.092;2022-07-21T12:27:28;6.78;;;6.13;;
26020;SDS011;13798;48.858;9.092;2022-07-21T12:29:53;7.40;;;6.10;;
26020;SDS011;13798;48.858;9.092;2022-07-21T12:35:15;6.97;;;6.27;;
26020;SDS011;13798;48.858;9.092;2022-07-21T12:37:55;8.07;;;6.13;;
26020;SDS011;13798;48.858;9.092;2022-07-21T12:40:38;6.63;;;6.03;;
26020;SDS011;13798;48.858;9.092;2022-07-21T12:46:12;6.82;;;5.70;;
26020;SDS011;13798;48.858;9.092;2022-07-21T12:48:40;6.30;;;5.70;;
26020;SDS011;13798;48.858;9.092;2022-07-21T12:51:11;6.50;;;5.95;;
26020;SDS011;13798;48.858;9.092;2022-07-21T12:53:47;6.35;;;5.75;;
26020;SDS011;13798;48.858;9.092;2022-07-21T12:56:15;6.28;;;5.68;;
26020;SDS011;13798;48.858;9.092;2022-07-21T12:58:43;6.75;;;5.95;;
26020;SDS011;13798;48.858;9.092;2022-07-21T13:01:09;5.80;;;5.20;;
26020;SDS011;13798;48.858;9.092;2022-07-21T13:03:35;6.57;;;5.93;;
26020;SDS011;13798;48.858;9.092;2022-07-21T13:06:04;7.40;;;5.47;;
26020;SDS011;13798;48.858;9.092;2022-07-21T13:08:30;6.15;;;5.50;;
26020;SDS011;13798;48.858;9.092;2022-07-21T13:10:57;7.30;;;4.82;;
26020;SDS011;13798;48.858;9.092;2022-07-21T13:13:22;5.50;;;5.00;;
26020;SDS011;13798;48.858;9.092;2022-07-21T13:15:49;5.30;;;4.80;;
26020;SDS011;13798;48.858;9.092;2022-07-21T13:18:14;6.00;;;4.60;;
26020;SDS011;13798;48.858;9.092;2022-07-21T13:20:40;5.73;;;4.83;;
26020;SDS011;13798;48.858;9.092;2022-07-21T13:23:05;7.13;;;5.20;;
26020;SDS011;13798;48.858;9.092;2022-07-21T13:25:31;5.07;;;4.65;;
26020;SDS011;13798;48.858;9.092;2022-07-21T13:27:56;5.37;;;4.40;;
26020;SDS011;13798;48.858;9.092;2022-07-21T13:30:22;5.20;;;4.70;;
26020;SDS011;13798;48.858;9.092;2022-07-21T13:32:48;5.43;;;4.90;;
26020;SDS011;13798;48.858;9.092;2022-07-21T13:35:13;5.13;;;4.63;;
26020;SDS011;13798;48.858;9.092;2022-07-21T13:37:40;5.45;;;4.90;;
26020;SDS011;13798;48.858;9.092;2022-07-21T13:40:06;4.53;;;4.13;;
26020;SDS011;13798;48.858;9.092;2022-07-21T13:42:32;4.47;;;4.07;;
26020;SDS011;13798;48.858;9.092;2022-07-21T13:44:58;4.23;;;3.80;;
26020;SDS011;13798;48.858;9.092;2022-07-21T13:47:23;5.33;;;4.30;;
26020;SDS011;13798;48.858;9.092;2022-07-21T13:49:49;5.63;;;4.40;;
26020;SDS011;13798;48.858;9.092;2022-07-21T13:52:14;5.37;;;4.87;;
26020;SDS011;13798;48.858;9.092;2022-07-21T13:54:40;4.60;;;4.20;;
26020;SDS011;13798;48.858;9.092;2022-07-21T13:57:05;5.07;;;4.50;;
26020;SDS011;13798;48.858;9.092;2022-07-21T13:59:31;4.60;;;4.15;;
26020;SDS011;13798;48.858;9.092;2022-07-21T14:01:56;4.63;;;4.22;;
26020;SDS011;13798;48.858;9.092;2022-07-21T14:04:22;4.73;;;4.10;;
26020;SDS011;13798;48.858;9.092;2022-07-21T14:06:48;4.30;;;3.90;;
26020;SDS011;13798;48.858;9.092;2022-07-21T14:09:15;5.38;;;4.32;;
26020;SDS011;13798;48.858;9.092;2022-07-21T14:11:42;5.13;;;4.40;;
26020;SDS011;13798;48.858;9.092;2022-07-21T14:14:08;4.35;;;4.05;;
26020;SDS011;13798;48.858;9.092;2022-07-21T14:16:34;6.47;;;4.20;;
26020;SDS011;13798;48.858;9.092;2022-07-21T14:18:59;5.97;;;4.03;;
26020;SDS011;13798;48.858;9.092;2022-07-21T14:21:25;5.03;;;3.97;;
26020;SDS011;13798;48.858;9.092;2022-07-21T14:23:52;4.78;;;4.05;;
26020;SDS011;13798;48.858;9.092;2022-07-21T14:26:37;6.25;;;4.90;;
26020;SDS011;13798;48.858;9.092;2022-07-21T14:29:04;4.50;;;4.10;;
26020;SDS011;13798;48.858;9.092;2022-07-21T14:31:30;4.47;;;4.00;;
26020;SDS011;13798;48.858;9.092;2022-07-21T14:33:56;5.15;;;3.97;;
26020;SDS011;13798;48.858;9.092;2022-07-21T14:36:22;4.43;;;3.67;;
26020;SDS011;13798;48.858;9.092;2022-07-21T14:38:47;4.30;;;4.00;;
26020;SDS011;13798;48.858;9.092;2022-07-21T14:41:13;5.43;;;4.17;;
26020;SDS011;13798;48.858;9.092;2022-07-21T14:43:38;4.53;;;4.10;;
26020;SDS011;13798;48.858;9.092;2022-07-21T14:46:04;6.05;;;4.47;;
26020;SDS011;13798;48.858;9.092;2022-07-21T14:48:29;4.13;;;3.70;;
26020;SDS011;13798;48.858;9.092;2022-07-21T14:50:55;5.30;;;3.73;;
26020;SDS011;13798;48.858;9.092;2022-07-21T14:53:21;5.37;;;4.10;;
26020;SDS011;13798;48.858;9.092;2022-07-21T14:55:46;5.23;;;3.93;;
26020;SDS011;13798;48.858;9.092;2022-07-21T14:58:12;6.33;;;4.10;;
26020;SDS011;13798;48.858;9.092;2022-07-21T15:00:37;4.30;;;3.90;;
26020;SDS011;13798;48.858;9.092;2022-07-21T15:03:03;5.55;;;4.40;;
26020;SDS011;13798;48.858;9.092;2022-07-21T15:05:28;4.13;;;3.80;;
26020;SDS011;13798;48.858;9.092;2022-07-21T15:07:54;4.40;;;3.40;;
26020;SDS011;13798;48.858;9.092;2022-07-21T15:10:20;4.80;;;4.00;;
26020;SDS011;13798;48.858;9.092;2022-07-21T15:12:45;3.93;;;3.60;;
26020;SDS011;13798;48.858;9.092;2022-07-21T15:15:11;4.88;;;3.45;;
26020;SDS011;13798;48.858;9.092;2022-07-21T15:17:37;3.85;;;3.40;;
26020;SDS011;13798;48.858;9.092;2022-07-21T15:20:03;4.03;;;3.72;;
26020;SDS011;13798;48.858;9.092;2022-07-21T15:22:29;4.10;;;3.72;;
26020;SDS011;13798;48.858;9.092;2022-07-21T15:24:56;4.15;;;3.70;;
26020;SDS011;13798;48.858;9.092;2022-07-21T15:27:23;4.28;;;3.88;;
26020;SDS011;13798;48.858;9.092;2022-07-21T15:29:49;5.20;;;4.10;;
26020;SDS011;13798;48.858;9.092;2022-07-21T15:32:14;4.57;;;3.90;;
26020;SDS011;13798;48.858;9.092;2022-07-21T15:34:40;4.60;;;3.97;;
26020;SDS011;13798;48.858;9.092;2022-07-21T15:37:06;7.03;;;4.30;;
26020;SDS011;13798;48.858;9.092;2022-07-21T15:39:31;4.20;;;3.77;;
26020;SDS011;13798;48.858;9.092;2022-07-21T15:41:58;4.78;;;3.88;;
26020;SDS011;13798;48.858;9.092;2022-07-21T15:44:23;4.47;;;4.07;;
26020;SDS011;13798;48.858;9.092;2022-07-21T15:46:49;4.55;;;3.60;;
26020;SDS011;13798;48.858;9.092;2022-07-21T15:49:16;4.90;;;4.05;;
26020;SDS011;13798;48.858;9.092;2022-07-21T15:51:44;4.13;;;3.67;;
26020;SDS011;13798;48.858;9.092;2022-07-21T15:54:10;5.97;;;4.37;;
26020;SDS011;13798;48.858;9.092;2022-07-21T15:56:36;4.40;;;4.00;;
26020;SDS011;13798;48.858;9.092;2022-07-21T15:59:01;4.27;;;3.87;;
26020;SDS011;13798;48.858;9.092;2022-07-21T16:01:45;4.50;;;3.63;;
26020;SDS011;13798;48.858;9.092;2022-07-21T16:04:11;5.57;;;4.37;;
26020;SDS011;13798;48.858;9.092;2022-07-21T16:06:36;4.15;;;3.85;;
26020;SDS011;13798;48.858;9.092;2022-07-21T16:09:02;5.95;;;4.20;;
26020;SDS011;13798;48.858;9.092;2022-07-21T16:11:29;4.57;;;3.83;;
26020;SDS011;13798;48.858;9.092;2022-07-21T16:13:55;3.70;;;3.40;;
26020;SDS011;13798;48.858;9.092;2022-07-21T16:16:21;4.47;;;3.60;;
26020;SDS011;13798;48.858;9.092;2022-07-21T16:18:46;5.80;;;4.10;;
26020;SDS011;13798;48.858;9.092;2022-07-21T16:21:12;6.77;;;4.00;;
26020;SDS011;13798;48.858;9.092;2022-07-21T16:23:37;9.30;;;4.87;;
26020;SDS011;13798;48.858;9.092;2022-07-21T16:26:03;4.20;;;3.80;;
26020;SDS011;13798;48.858;9.092;2022-07-21T16:28:29;7.18;;;4.13;;
26020;SDS011;13798;48.858;9.092;2022-07-21T16:30:54;4.43;;;3.97;;
26020;SDS011;13798;48.858;9.092;2022-07-21T16:33:20;7.83;;;4.37;;
26020;SDS011;13798;48.858;9.092;2022-07-21T16:35:47;4.80;;;4.40;;
26020;SDS011;13798;48.858;9.092;2022-07-21T16:38:12;5.25;;;4.05;;
26020;SDS011;13798;48.858;9.092;2022-07-21T16:40:38;4.83;;;3.87;;
26020;SDS011;13798;48.858;9.092;2022-07-21T16:43:03;4.50;;;3.93;;
26020;SDS011;13798;48.858;9.092;2022-07-21T16:45:29;4.67;;;4.17;;
26020;SDS011;13798;48.858;9.092;2022-07-21T16:47:54;5.40;;;4.00;;
26020;SDS011;13798;48.858;9.092;2022-07-21T16:50:20;8.18;;;4.65;;
26020;SDS011;13798;48.858;9.092;2022-07-21T16:52:46;4.83;;;4.10;;
26020;SDS011;13798;48.858;9.092;2022-07-21T16:55:12;7.10;;;4.37;;
26020;SDS011;13798;48.858;9.092;2022-07-21T16:57:37;6.13;;;3.92;;
26020;SDS011;13798;48.858;9.092;2022-07-21T17:00:04;7.57;;;4.38;;
26020;SDS011;13798;48.858;9.092;2022-07-21T17:02:31;14.30;;;5.05;;
26020;SDS011;13798;48.858;9.092;2022-07-21T17:04:57;5.70;;;4.30;;
26020;SDS011;13798;48.858;9.092;2022-07-21T17:07:22;4.73;;;4.27;;
26020;SDS011;13798;48.858;9.092;2022-07-21T17:09:48;6.37;;;4.30;;
26020;SDS011;13798;48.858;9.092;2022-07-21T17:12:14;5.30;;;4.40;;
26020;SDS011;13798;48.858;9.092;2022-07-21T17:14:40;4.70;;;4.10;;
26020;SDS011;13798;48.858;9.092;2022-07-21T17:17:05;4.57;;;4.17;;
26020;SDS011;13798;48.858;9.092;2022-07-21T17:19:31;5.68;;;4.70;;
26020;SDS011;13798;48.858;9.092;2022-07-21T17:21:56;5.18;;;4.40;;
26020;SDS011;13798;48.858;9.092;2022-07-21T17:24:22;5.07;;;4.07;;
26020;SDS011;13798;48.858;9.092;2022-07-21T17:26:47;7.27;;;4.53;;
26020;SDS011;13798;48.858;9.092;2022-07-21T17:29:13;5.87;;;4.00;;
26020;SDS011;13798;48.858;9.092;2022-07-21T17:31:39;5.87;;;4.07;;
26020;SDS011;13798;48.858;9.092;2022-07-21T17:34:06;4.57;;;4.18;;
26020;SDS011;13798;48.858;9.092;2022-07-21T17:36:32;5.03;;;4.10;;
26020;SDS011;13798;48.858;9.092;2022-07-21T17:38:57;5.63;;;4.45;;
26020;SDS011;13798;48.858;9.092;2022-07-21T17:41:23;4.90;;;4.47;;
26020;SDS011;13798;48.858;9.092;2022-07-21T17:43:49;4.77;;;4.27;;
26020;SDS011;13798;48.858;9.092;2022-07-21T17:46:14;6.27;;;4.00;;
26020;SDS011;13798;48.858;9.092;2022-07-21T17:48:40;5.57;;;4.20;;
26020;SDS011;13798;48.858;9.092;2022-07-21T17:51:05;5.13;;;4.10;;
26020;SDS011;13798;48.858;9.092;2022-07-21T17:53:31;4.82;;;4.38;;
26020;SDS011;13798;48.858;9.092;2022-07-21T17:55:57;7.33;;;4.30;;
26020;SDS011;13798;48.858;9.092;2022-07-21T17:58:22;4.47;;;4.07;;
26020;SDS011;13798;48.858;9.092;2022-07-21T18:01:07;5.68;;;4.38;;
26020;SDS011;13798;48.858;9.092;2022-07-21T18:03:32;4.80;;;4.10;;
26020;SDS011;13798;48.858;9.092;2022-07-21T18:05:58;5.80;;;4.50;;
26020;SDS011;13798;48.858;9.092;2022-07-21T18:08:23;5.87;;;4.60;;
26020;SDS011;13798;48.858;9.092;2022-07-21T18:10:49;6.93;;;4.43;;
26020;SDS011;13798;48.858;9.092;2022-07-21T18:13:14;4.77;;;4.30;;
26020;SDS011;13798;48.858;9.092;2022-07-21T18:15:40;5.63;;;4.70;;
26020;SDS011;13798;48.858;9.092;2022-07-21T18:18:05;5.13;;;4.40;;
26020;SDS011;13798;48.858;9.092;2022-07-21T18:20:31;5.13;;;4.60;;
26020;SDS011;13798;48.858;9.092;2022-07-21T18:22:57;5.03;;;4.35;;
26020;SDS011;13798;48.858;9.092;2022-07-21T18:25:22;7.23;;;4.57;;
26020;SDS011;13798;48.858;9.092;2022-07-21T18:27:49;9.27;;;4.73;;
26020;SDS011;13798;48.858;9.092;2022-07-21T18:30:14;6.80;;;4.70;;
26020;SDS011;13798;48.858;9.092;2022-07-21T18:32:41;6.78;;;4.85;;
26020;SDS011;13798;48.858;9.092;2022-07-21T18:35:07;6.85;;;4.22;;
26020;SDS011;13798;48.858;9.092;2022-07-21T18:37:33;5.00;;;4.57;;
26020;SDS011;13798;48.858;9.092;2022-07-21T18:39:59;6.77;;;4.67;;
26020;SDS011;13798;48.858;9.092;2022-07-21T18:42:24;5.40;;;4.10;;
26020;SDS011;13798;48.858;9.092;2022-07-21T18:44:50;6.45;;;4.93;;
26020;SDS011;13798;48.858;9.092;2022-07-21T18:47:15;5.13;;;4.67;;
26020;SDS011;13798;48.858;9.092;2022-07-21T18:49:41;5.70;;;4.37;;
26020;SDS011;13798;48.858;9.092;2022-07-21T18:52:06;5.00;;;4.30;;
26020;SDS011;13798;48.858;9.092;2022-07-21T18:54:32;7.82;;;5.05;;
26020;SDS011;13798;48.858;9.092;2022-07-21T18:56:58;5.80;;;4.32;;
26020;SDS011;13798;48.858;9.092;2022-07-21T18:59:24;7.70;;;5.10;;
26020;SDS011;13798;48.858;9.092;2022-07-21T19:01:49;6.33;;;5.20;;
26020;SDS011;13798;48.858;9.092;2022-07-21T19:04:15;6.25;;;5.15;;
26020;SDS011;13798;48.858;9.092;2022-07-21T19:06:41;6.33;;;4.70;;
26020;SDS011;13798;48.858;9.092;2022-07-21T19:09:06;6.33;;;4.93;;
26020;SDS011;13798;48.858;9.092;2022-07-21T19:11:32;7.20;;;4.95;;
26020;SDS011;13798;48.858;9.092;2022-07-21T19:13:57;8.47;;;5.70;;
26020;SDS011;13798;48.858;9.092;2022-07-21T19:16:23;5.50;;;5.00;;
26020;SDS011;13798;48.858;9.092;2022-07-21T19:18:49;7.37;;;4.90;;
26020;SDS011;13798;48.858;9.092;2022-07-21T19:21:14;9.30;;;5.20;;
26020;SDS011;13798;48.858;9.092;2022-07-21T19:23:40;6.07;;;5.00;;
26020;SDS011;13798;48.858;9.092;2022-07-21T19:26:06;8.60;;;5.25;;
26020;SDS011;13798;48.858;9.092;2022-07-21T19:28:32;8.30;;;5.40;;
26020;SDS011;13798;48.858;9.092;2022-07-21T19:30:59;9.38;;;5.28;;
26020;SDS011;13798;48.858;9.092;2022-07-21T19:33:25;7.03;;;6.07;;
26020;SDS011;13798;48.858;9.092;2022-07-21T19:35:51;8.60;;;5.93;;
26020;SDS011;13798;48.858;9.092;2022-07-21T19:38:16;9.23;;;6.32;;
26020;SDS011;13798;48.858;9.092;2022-07-21T19:40:42;6.30;;;5.63;;
26020;SDS011;13798;48.858;9.092;2022-07-21T19:43:08;6.53;;;5.85;;
26020;SDS011;13798;48.858;9.092;2022-07-21T19:45:33;6.83;;;5.33;;
26020;SDS011;13798;48.858;9.092;2022-07-21T19:47:59;9.93;;;5.60;;
26020;SDS011;13798;48.858;9.092;2022-07-21T19:50:25;9.15;;;5.65;;
26020;SDS011;13798;48.858;9.092;2022-07-21T19:52:51;6.83;;;5.70;;
26020;SDS011;13798;48.858;9.092;2022-07-21T19:55:17;8.18;;;5.90;;
26020;SDS011;13798;48.858;9.092;2022-07-21T19:57:43;7.70;;;5.70;;
26020;SDS011;13798;48.858;9.092;2022-07-21T20:00:11;6.32;;;5.72;;
26020;SDS011;13798;48.858;9.092;2022-07-21T20:02:39;8.70;;;5.67;;
26020;SDS011;13798;48.858;9.092;2022-07-21T20:05:05;8.55;;;5.78;;